Time;durP1;ratioP1;P1;durP2;ratioP2;P2;SDS_P1;SDS_P2;PMS_P1;PMS_P2;Temp;Humidity;BMP_temperature;BMP_pressure;BME280_temperature;BME280_humidity;BME280_pressure;Samples;Min_cycle;Max_cycle;Signal;HPM_P1;HPM_P2
2022/07/31 00:02:16;;;;;;;9.02;5.85;;;;;;;;;;5040841;28;20043;-83
2022/07/31 00:04:41;;;;;;;9.77;6.68;;;;;;;;;;5051744;28;20099;-83
2022/07/31 00:07:06;;;;;;;16.02;7.43;;;;;;;;;;5022174;28;20111;-84
2022/07/31 00:09:32;;;;;;;10.80;6.13;;;;;;;;;;5041739;28;20025;-83
2022/07/31 00:11:57;;;;;;;8.63;6.05;;;;;;;;;;5025363;28;20476;-83
2022/07/31 00:14:22;;;;;;;10.48;5.65;;;;;;;;;;5049696;28;20082;-84
2022/07/31 00:16:48;;;;;;;12.10;5.40;;;;;;;;;;5046687;28;20025;-84
2022/07/31 00:19:13;;;;;;;12.07;5.90;;;;;;;;;;5039517;28;20027;-84
2022/07/31 00:21:38;;;;;;;12.48;6.18;;;;;;;;;;5039169;28;20056;-84
2022/07/31 00:24:04;;;;;;;14.75;6.00;;;;;;;;;;5037200;28;20051;-83
2022/07/31 00:26:29;;;;;;;9.70;5.78;;;;;;;;;;5053379;28;20052;-84
2022/07/31 00:28:55;;;;;;;8.70;5.32;;;;;;;;;;5037561;28;20031;-84
2022/07/31 00:31:20;;;;;;;11.98;5.40;;;;;;;;;;5026997;28;20040;-83
2022/07/31 00:33:45;;;;;;;8.57;5.25;;;;;;;;;;5036292;28;20052;-84
2022/07/31 00:36:11;;;;;;;10.38;5.10;;;;;;;;;;5039580;28;20453;-84
2022/07/31 00:38:36;;;;;;;10.93;4.63;;;;;;;;;;5017755;28;20060;-83
2022/07/31 00:41:02;;;;;;;10.50;5.30;;;;;;;;;;5022389;28;20012;-84
2022/07/31 00:43:28;;;;;;;7.97;5.15;;;;;;;;;;5037005;28;20062;-83
2022/07/31 00:45:56;;;;;;;13.93;5.20;;;;;;;;;;5034504;28;20040;-84
2022/07/31 00:48:22;;;;;;;15.38;5.30;;;;;;;;;;5037050;28;20036;-83
2022/07/31 00:50:47;;;;;;;13.40;5.53;;;;;;;;;;5035717;28;20054;-84
2022/07/31 00:53:13;;;;;;;6.95;4.97;;;;;;;;;;5048474;28;20120;-84
2022/07/31 00:55:38;;;;;;;11.43;5.50;;;;;;;;;;5024096;28;20123;-84
2022/07/31 00:58:03;;;;;;;8.68;5.32;;;;;;;;;;5051761;28;20039;-83
2022/07/31 01:00:29;;;;;;;7.93;4.95;;;;;;;;;;5028561;28;20530;-83
2022/07/31 01:02:54;;;;;;;6.47;4.90;;;;;;;;;;5039412;28;20035;-83
2022/07/31 01:05:19;;;;;;;9.43;5.28;;;;;;;;;;5013264;28;20067;-84
2022/07/31 01:07:45;;;;;;;13.02;5.60;;;;;;;;;;5049038;28;20131;-83
2022/07/31 01:10:13;;;;;;;8.20;5.32;;;;;;;;;;5045563;28;20021;-83
2022/07/31 01:12:41;;;;;;;12.43;5.20;;;;;;;;;;5040202;28;20159;-83
2022/07/31 01:15:07;;;;;;;9.30;4.50;;;;;;;;;;5022271;28;20061;-84
2022/07/31 01:17:33;;;;;;;11.52;4.80;;;;;;;;;;5002361;28;20025;-84
2022/07/31 01:19:58;;;;;;;8.10;4.38;;;;;;;;;;5036378;28;20032;-84
2022/07/31 01:23:21;;;;;;;6.18;4.32;;;;;;;;;;5035632;28;20036;-84
2022/07/31 01:26:15;;;;;;;8.00;4.35;;;;;;;;;;4993258;28;20046;-83
2022/07/31 01:28:56;;;;;;;5.72;4.30;;;;;;;;;;4964356;28;20053;-83
2022/07/31 01:31:29;;;;;;;6.93;4.32;;;;;;;;;;5033818;28;20101;-83
2022/07/31 01:34:02;;;;;;;9.15;4.40;;;;;;;;;;5036619;28;20020;-84
2022/07/31 01:36:30;;;;;;;7.35;4.25;;;;;;;;;;5018898;28;20612;-83
2022/07/31 01:38:55;;;;;;;7.82;4.55;;;;;;;;;;5021932;28;20024;-83
2022/07/31 01:41:24;;;;;;;14.38;4.28;;;;;;;;;;5035257;28;20059;-83
2022/07/31 01:43:51;;;;;;;11.02;3.97;;;;;;;;;;5037748;28;20028;-84
2022/07/31 01:46:17;;;;;;;10.73;5.18;;;;;;;;;;5039554;28;20028;-84
2022/07/31 01:48:42;;;;;;;8.02;4.43;;;;;;;;;;5041510;28;20043;-84
2022/07/31 01:51:08;;;;;;;7.40;4.20;;;;;;;;;;5038484;28;20052;-84
2022/07/31 01:53:35;;;;;;;8.73;4.50;;;;;;;;;;5047711;28;20029;-84
2022/07/31 01:56:00;;;;;;;7.20;4.45;;;;;;;;;;5042217;28;20371;-84
2022/07/31 01:58:26;;;;;;;9.07;4.82;;;;;;;;;;5041149;28;20021;-84
2022/07/31 02:00:53;;;;;;;9.85;4.63;;;;;;;;;;5005739;28;20067;-84
2022/07/31 02:03:18;;;;;;;10.57;4.68;;;;;;;;;;5033111;28;20071;-84
2022/07/31 02:05:44;;;;;;;7.75;4.53;;;;;;;;;;5033616;28;20056;-83
2022/07/31 02:08:12;;;;;;;8.73;5.25;;;;;;;;;;5039386;28;20089;-84
2022/07/31 02:10:39;;;;;;;7.13;4.47;;;;;;;;;;5022847;28;20076;-85
2022/07/31 02:13:04;;;;;;;10.02;4.18;;;;;;;;;;5030967;28;20023;-85
2022/07/31 02:15:31;;;;;;;6.97;4.60;;;;;;;;;;5041465;28;20028;-84
2022/07/31 02:17:56;;;;;;;5.50;4.30;;;;;;;;;;5021331;28;20111;-84
2022/07/31 02:20:23;;;;;;;8.50;4.90;;;;;;;;;;5017975;28;20031;-84
2022/07/31 02:22:48;;;;;;;6.97;4.88;;;;;;;;;;5049279;28;20063;-84
2022/07/31 02:25:14;;;;;;;10.23;5.97;;;;;;;;;;5047060;28;20078;-84
2022/07/31 02:27:39;;;;;;;12.23;5.45;;;;;;;;;;5037279;28;20552;-84
2022/07/31 02:30:05;;;;;;;7.35;5.38;;;;;;;;;;5041831;28;20036;-84
2022/07/31 02:32:31;;;;;;;7.93;5.30;;;;;;;;;;5047293;28;20044;-84
2022/07/31 02:34:56;;;;;;;14.02;6.15;;;;;;;;;;5054598;28;20074;-85
2022/07/31 02:37:22;;;;;;;6.72;4.78;;;;;;;;;;5052379;28;20078;-84
2022/07/31 02:39:49;;;;;;;10.05;5.80;;;;;;;;;;5025771;28;20075;-84
2022/07/31 02:42:15;;;;;;;8.50;5.35;;;;;;;;;;5051405;28;20019;-84
2022/07/31 02:44:40;;;;;;;7.07;5.68;;;;;;;;;;5064724;28;20059;-84
2022/07/31 02:47:06;;;;;;;8.40;5.18;;;;;;;;;;5062363;28;20504;-84
2022/07/31 02:49:34;;;;;;;9.70;5.38;;;;;;;;;;5035889;28;20155;-84
2022/07/31 02:51:59;;;;;;;16.00;5.75;;;;;;;;;;5045875;28;20047;-84
2022/07/31 02:54:25;;;;;;;8.32;5.10;;;;;;;;;;5027873;28;20029;-84
2022/07/31 02:56:51;;;;;;;7.75;5.95;;;;;;;;;;5050905;28;20032;-84
2022/07/31 02:59:16;;;;;;;10.07;4.95;;;;;;;;;;5062857;28;20480;-84
2022/07/31 03:01:42;;;;;;;8.30;5.97;;;;;;;;;;5037636;28;20072;-85
2022/07/31 03:04:07;;;;;;;16.05;5.68;;;;;;;;;;5031710;28;20088;-84
2022/07/31 03:06:32;;;;;;;8.73;6.18;;;;;;;;;;5064830;28;20028;-84
2022/07/31 03:08:58;;;;;;;10.48;5.85;;;;;;;;;;5047757;28;20033;-84
2022/07/31 03:11:23;;;;;;;8.68;6.15;;;;;;;;;;5028894;28;20032;-84
2022/07/31 03:13:49;;;;;;;10.38;5.80;;;;;;;;;;5018265;28;20020;-83
2022/07/31 03:16:14;;;;;;;8.98;5.22;;;;;;;;;;5062956;28;20110;-84
2022/07/31 03:18:40;;;;;;;9.90;5.57;;;;;;;;;;5040910;28;20059;-84
2022/07/31 03:21:05;;;;;;;9.93;5.55;;;;;;;;;;5057775;28;20066;-84
2022/07/31 03:23:35;;;;;;;7.80;4.95;;;;;;;;;;5050656;28;20029;-84
2022/07/31 03:26:01;;;;;;;12.25;6.75;;;;;;;;;;5031698;28;20128;-84
2022/07/31 03:28:26;;;;;;;14.55;6.40;;;;;;;;;;5042683;28;20059;-83
2022/07/31 03:30:52;;;;;;;9.73;6.22;;;;;;;;;;5067954;28;20029;-84
2022/07/31 03:33:17;;;;;;;8.88;5.28;;;;;;;;;;5042442;28;20040;-83
2022/07/31 03:35:42;;;;;;;7.13;5.90;;;;;;;;;;5055414;28;20526;-84
2022/07/31 03:38:08;;;;;;;11.73;5.60;;;;;;;;;;5051859;28;20035;-84
2022/07/31 03:40:33;;;;;;;9.90;6.38;;;;;;;;;;5048778;28;20029;-84
2022/07/31 03:43:00;;;;;;;10.52;6.07;;;;;;;;;;5049471;28;20128;-84
2022/07/31 03:45:25;;;;;;;8.80;6.75;;;;;;;;;;5033497;28;20020;-84
2022/07/31 03:47:51;;;;;;;8.20;6.53;;;;;;;;;;5029231;28;20514;-83
2022/07/31 03:50:16;;;;;;;10.00;6.28;;;;;;;;;;5021221;28;20055;-83
2022/07/31 03:52:43;;;;;;;8.43;6.97;;;;;;;;;;5049881;28;20012;-83
2022/07/31 03:55:08;;;;;;;19.73;7.60;;;;;;;;;;5024024;28;20088;-84
2022/07/31 03:57:34;;;;;;;9.80;7.15;;;;;;;;;;5022307;28;20022;-84
2022/07/31 04:00:00;;;;;;;9.63;6.85;;;;;;;;;;5028416;28;20051;-84
2022/07/31 04:02:26;;;;;;;10.38;7.68;;;;;;;;;;5046768;28;20033;-84
2022/07/31 04:04:51;;;;;;;15.30;8.77;;;;;;;;;;5044677;28;20036;-85
2022/07/31 04:07:17;;;;;;;10.68;8.15;;;;;;;;;;5064004;28;20058;-84
2022/07/31 04:09:42;;;;;;;11.70;7.65;;;;;;;;;;5040232;28;20064;-84
2022/07/31 04:12:07;;;;;;;9.60;7.63;;;;;;;;;;5004918;28;20029;-84
2022/07/31 04:14:33;;;;;;;11.38;7.43;;;;;;;;;;5039196;28;20067;-84
2022/07/31 04:16:58;;;;;;;9.27;6.93;;;;;;;;;;5015771;28;20068;-84
2022/07/31 04:19:24;;;;;;;12.27;6.93;;;;;;;;;;5059252;28;20032;-84
2022/07/31 04:21:49;;;;;;;18.20;8.13;;;;;;;;;;5067248;28;20032;-84
2022/07/31 04:24:17;;;;;;;11.27;6.88;;;;;;;;;;5062597;28;20052;-84
2022/07/31 04:26:43;;;;;;;16.20;8.43;;;;;;;;;;5056302;28;20036;-84
2022/07/31 04:29:08;;;;;;;10.52;7.45;;;;;;;;;;5031712;28;20496;-84
2022/07/31 04:31:33;;;;;;;12.82;7.70;;;;;;;;;;5066212;28;20092;-84
2022/07/31 04:33:59;;;;;;;12.20;8.02;;;;;;;;;;5042681;28;20050;-84
2022/07/31 04:36:24;;;;;;;11.98;7.63;;;;;;;;;;5044858;28;20055;-84
2022/07/31 04:38:49;;;;;;;9.85;7.93;;;;;;;;;;5054705;28;20441;-84
2022/07/31 04:41:16;;;;;;;11.32;7.50;;;;;;;;;;5028760;28;20116;-84
2022/07/31 04:43:41;;;;;;;14.27;8.05;;;;;;;;;;5065331;28;20072;-84
2022/07/31 04:46:07;;;;;;;12.18;7.68;;;;;;;;;;5036075;28;20040;-84
2022/07/31 04:48:32;;;;;;;13.40;8.13;;;;;;;;;;5039369;28;20092;-84
2022/07/31 04:50:57;;;;;;;9.57;6.97;;;;;;;;;;5064096;28;20160;-84
2022/07/31 04:53:23;;;;;;;13.07;7.80;;;;;;;;;;5058541;28;20060;-85
2022/07/31 04:58:52;;;;;;;10.95;7.63;;;;;;;;;;4992986;28;20034;-84
2022/07/31 05:01:17;;;;;;;9.75;7.43;;;;;;;;;;4988435;28;20040;-84
2022/07/31 05:03:43;;;;;;;12.75;7.28;;;;;;;;;;5023198;28;20049;-85
2022/07/31 05:06:10;;;;;;;10.98;6.68;;;;;;;;;;5034482;28;20315;-84
2022/07/31 05:08:35;;;;;;;11.23;6.25;;;;;;;;;;5039981;28;20029;-84
2022/07/31 05:13:44;;;;;;;9.05;6.13;;;;;;;;;;5040961;28;20737;-84
2022/07/31 05:16:10;;;;;;;10.02;6.18;;;;;;;;;;5061048;28;20048;-84
2022/07/31 05:18:36;;;;;;;10.77;6.40;;;;;;;;;;5060689;28;20045;-84
2022/07/31 05:21:01;;;;;;;12.13;6.28;;;;;;;;;;5022636;28;20068;-84
2022/07/31 05:23:27;;;;;;;9.18;5.75;;;;;;;;;;5049919;28;20135;-84
2022/07/31 05:25:52;;;;;;;10.40;6.07;;;;;;;;;;5000499;28;20108;-84
2022/07/31 05:28:18;;;;;;;7.78;6.63;;;;;;;;;;5020570;28;20479;-84
2022/07/31 05:30:43;;;;;;;9.43;6.15;;;;;;;;;;5066711;28;20079;-84
2022/07/31 05:33:08;;;;;;;14.85;5.78;;;;;;;;;;5046180;28;20020;-83
2022/07/31 05:35:34;;;;;;;8.70;5.43;;;;;;;;;;5023841;28;20388;-84
2022/07/31 05:37:59;;;;;;;7.65;5.85;;;;;;;;;;5046208;28;20033;-84
2022/07/31 05:40:24;;;;;;;10.20;5.25;;;;;;;;;;5051402;28;20068;-84
2022/07/31 05:42:50;;;;;;;9.82;5.03;;;;;;;;;;5048003;28;20172;-84
2022/07/31 05:45:15;;;;;;;10.63;5.35;;;;;;;;;;5036066;28;20081;-84
2022/07/31 05:47:40;;;;;;;8.13;5.15;;;;;;;;;;5061586;28;20118;-84
2022/07/31 05:50:07;;;;;;;8.63;4.80;;;;;;;;;;5039098;28;20060;-84
2022/07/31 05:52:32;;;;;;;7.05;4.80;;;;;;;;;;5068313;28;20033;-84
2022/07/31 05:54:57;;;;;;;9.90;4.75;;;;;;;;;;5054738;28;20084;-84
2022/07/31 05:57:23;;;;;;;10.52;5.47;;;;;;;;;;5020804;28;20055;-83
2022/07/31 05:59:48;;;;;;;8.27;4.47;;;;;;;;;;5038018;28;20463;-84
2022/07/31 06:02:14;;;;;;;7.57;4.70;;;;;;;;;;5026124;28;20424;-84
2022/07/31 06:04:39;;;;;;;9.70;4.97;;;;;;;;;;5023746;28;20029;-84
2022/07/31 06:07:04;;;;;;;7.82;4.70;;;;;;;;;;5023005;28;20094;-84
2022/07/31 06:09:30;;;;;;;9.70;4.60;;;;;;;;;;5050614;28;20055;-84
2022/07/31 06:11:55;;;;;;;9.18;4.43;;;;;;;;;;5022979;28;20056;-85
2022/07/31 06:14:21;;;;;;;10.13;4.78;;;;;;;;;;5026503;28;20060;-83
2022/07/31 06:16:48;;;;;;;8.20;4.97;;;;;;;;;;5037805;28;20387;-83
2022/07/31 06:19:13;;;;;;;9.23;5.60;;;;;;;;;;5057863;28;20033;-83
2022/07/31 06:21:39;;;;;;;12.05;6.00;;;;;;;;;;5053714;28;20078;-84
2022/07/31 06:24:05;;;;;;;11.15;5.35;;;;;;;;;;5038816;28;20042;-83
2022/07/31 06:26:30;;;;;;;8.82;5.95;;;;;;;;;;5053313;28;20542;-84
2022/07/31 06:28:56;;;;;;;9.20;5.45;;;;;;;;;;5051957;28;20071;-83
2022/07/31 06:31:21;;;;;;;7.97;5.85;;;;;;;;;;5068783;28;20025;-83
2022/07/31 06:33:47;;;;;;;7.95;5.25;;;;;;;;;;5054468;28;20029;-83
2022/07/31 06:36:12;;;;;;;8.00;5.68;;;;;;;;;;5048764;28;20537;-83
2022/07/31 06:38:37;;;;;;;12.13;6.28;;;;;;;;;;5054505;28;20039;-83
2022/07/31 06:41:03;;;;;;;7.55;5.85;;;;;;;;;;5053494;28;20056;-83
2022/07/31 06:43:28;;;;;;;10.60;6.07;;;;;;;;;;5064241;28;20063;-83
2022/07/31 06:45:54;;;;;;;13.45;7.10;;;;;;;;;;5052727;28;20107;-84
2022/07/31 06:48:19;;;;;;;11.73;6.82;;;;;;;;;;5053342;28;20082;-83
2022/07/31 06:50:44;;;;;;;11.55;7.13;;;;;;;;;;5041789;28;20033;-84
2022/07/31 06:53:10;;;;;;;10.23;6.60;;;;;;;;;;5041498;28;20033;-84
2022/07/31 06:55:35;;;;;;;10.93;7.15;;;;;;;;;;5064384;28;20079;-84
2022/07/31 06:58:00;;;;;;;8.70;7.78;;;;;;;;;;5045668;28;20579;-83
2022/07/31 07:00:26;;;;;;;11.05;7.70;;;;;;;;;;5052433;28;20083;-84
2022/07/31 07:02:51;;;;;;;9.32;7.43;;;;;;;;;;5041690;28;20033;-84
2022/07/31 07:05:17;;;;;;;12.32;8.13;;;;;;;;;;5066477;28;20038;-84
2022/07/31 07:07:42;;;;;;;13.93;8.20;;;;;;;;;;5058449;28;20035;-84
2022/07/31 07:10:08;;;;;;;11.27;8.40;;;;;;;;;;5066381;28;20028;-84
2022/07/31 07:12:33;;;;;;;9.70;7.63;;;;;;;;;;5043128;28;20492;-83
2022/07/31 07:14:58;;;;;;;11.68;8.07;;;;;;;;;;5064960;28;20016;-83
2022/07/31 07:17:24;;;;;;;10.65;8.57;;;;;;;;;;5036542;28;20088;-83
2022/07/31 07:19:49;;;;;;;12.27;7.82;;;;;;;;;;5040536;28;20032;-83
2022/07/31 07:22:14;;;;;;;10.70;7.90;;;;;;;;;;5040361;28;20088;-83
2022/07/31 07:24:42;;;;;;;10.38;7.85;;;;;;;;;;5027225;28;20519;-83
2022/07/31 07:27:08;;;;;;;10.02;8.55;;;;;;;;;;5034265;28;20029;-84
2022/07/31 07:29:33;;;;;;;10.10;7.25;;;;;;;;;;5035320;28;20048;-84
2022/07/31 07:31:58;;;;;;;8.75;7.28;;;;;;;;;;5062220;28;20052;-84
2022/07/31 07:34:24;;;;;;;10.63;7.80;;;;;;;;;;5033928;28;20072;-83
2022/07/31 07:36:50;;;;;;;15.18;8.00;;;;;;;;;;5057646;28;20414;-83
2022/07/31 07:39:15;;;;;;;12.35;7.15;;;;;;;;;;5045237;28;20060;-83
2022/07/31 07:41:40;;;;;;;9.73;7.80;;;;;;;;;;5060728;28;20029;-84
2022/07/31 07:44:06;;;;;;;13.88;8.05;;;;;;;;;;5013384;28;20064;-70
2022/07/31 07:46:31;;;;;;;19.35;8.55;;;;;;;;;;5047754;28;20053;-70
2022/07/31 07:48:57;;;;;;;12.30;8.55;;;;;;;;;;5035197;28;20033;-70
2022/07/31 07:51:22;;;;;;;10.00;6.95;;;;;;;;;;5049373;28;20035;-70
2022/07/31 07:53:47;;;;;;;9.13;7.82;;;;;;;;;;5046269;28;20028;-70
2022/07/31 07:56:13;;;;;;;10.60;7.25;;;;;;;;;;5046273;28;20070;-70
2022/07/31 07:58:38;;;;;;;11.40;7.43;;;;;;;;;;5047153;28;20025;-70
2022/07/31 08:01:03;;;;;;;9.18;7.03;;;;;;;;;;5046561;28;20036;-70
2022/07/31 08:03:30;;;;;;;11.43;7.90;;;;;;;;;;5044558;28;20032;-70
2022/07/31 08:05:55;;;;;;;12.43;7.38;;;;;;;;;;5044511;28;20079;-70
2022/07/31 08:08:21;;;;;;;11.70;8.00;;;;;;;;;;5039685;28;20064;-70
2022/07/31 08:10:46;;;;;;;9.90;6.85;;;;;;;;;;5044717;28;20510;-70
2022/07/31 08:13:11;;;;;;;10.98;7.65;;;;;;;;;;5047949;28;20128;-70
2022/07/31 08:15:37;;;;;;;9.15;7.57;;;;;;;;;;5044938;28;20067;-70
2022/07/31 08:18:02;;;;;;;9.85;7.75;;;;;;;;;;5045470;28;20078;-70
2022/07/31 08:20:28;;;;;;;11.75;7.43;;;;;;;;;;5046314;28;20435;-70
2022/07/31 08:22:53;;;;;;;11.23;7.80;;;;;;;;;;5048231;28;20549;-70
2022/07/31 08:25:18;;;;;;;13.70;8.07;;;;;;;;;;5064259;28;20261;-70
2022/07/31 08:27:46;;;;;;;8.40;6.63;;;;;;;;;;5064352;28;20112;-71
2022/07/31 08:30:11;;;;;;;10.90;6.43;;;;;;;;;;5063621;28;20034;-71
2022/07/31 08:32:37;;;;;;;12.23;6.63;;;;;;;;;;5066355;28;20384;-70
2022/07/31 08:35:02;;;;;;;9.63;6.57;;;;;;;;;;5065460;28;20048;-71
2022/07/31 08:37:29;;;;;;;11.45;7.07;;;;;;;;;;5029060;28;20708;-73
2022/07/31 08:39:54;;;;;;;10.07;6.18;;;;;;;;;;5048421;28;20115;-72
2022/07/31 08:42:20;;;;;;;10.02;7.53;;;;;;;;;;5067286;28;20074;-72
2022/07/31 08:44:45;;;;;;;9.30;7.18;;;;;;;;;;5049130;28;20036;-72
2022/07/31 08:47:13;;;;;;;10.23;7.97;;;;;;;;;;5030625;28;20498;-73
2022/07/31 08:49:42;;;;;;;13.18;7.45;;;;;;;;;;5031316;28;20032;-72
2022/07/31 08:52:08;;;;;;;10.35;7.07;;;;;;;;;;5065575;28;20476;-72
2022/07/31 08:54:34;;;;;;;11.30;7.22;;;;;;;;;;5031158;28;20074;-72
2022/07/31 08:56:59;;;;;;;11.73;8.23;;;;;;;;;;5038118;28;20046;-72
2022/07/31 08:59:25;;;;;;;11.38;7.75;;;;;;;;;;5045691;28;20036;-72
2022/07/31 09:01:51;;;;;;;10.80;6.93;;;;;;;;;;5064838;28;20051;-72
2022/07/31 09:04:17;;;;;;;11.50;6.25;;;;;;;;;;5050712;28;20430;-72
2022/07/31 09:06:42;;;;;;;13.13;8.15;;;;;;;;;;5049175;28;20020;-71
2022/07/31 09:09:08;;;;;;;10.07;8.20;;;;;;;;;;5063226;28;20505;-73
2022/07/31 09:11:33;;;;;;;14.05;7.38;;;;;;;;;;5065261;28;20078;-72
2022/07/31 09:14:00;;;;;;;11.90;8.27;;;;;;;;;;5032191;28;20031;-73
2022/07/31 09:16:25;;;;;;;11.02;7.13;;;;;;;;;;5066970;28;20539;-72
2022/07/31 09:18:58;;;;;;;12.27;7.43;;;;;;;;;;5049506;28;20025;-73
2022/07/31 09:21:24;;;;;;;12.38;6.57;;;;;;;;;;5034709;28;20074;-73
2022/07/31 09:23:50;;;;;;;12.20;7.53;;;;;;;;;;5046291;28;20058;-73
2022/07/31 09:26:15;;;;;;;10.95;8.18;;;;;;;;;;5044877;28;20419;-72
2022/07/31 09:28:44;;;;;;;10.35;6.90;;;;;;;;;;5046146;28;20190;-72
2022/07/31 09:31:10;;;;;;;11.52;7.10;;;;;;;;;;5045007;28;20067;-72
2022/07/31 09:33:37;;;;;;;10.98;7.72;;;;;;;;;;5045281;28;20387;-73
2022/07/31 09:36:02;;;;;;;11.68;7.80;;;;;;;;;;5012589;28;20573;-73
2022/07/31 09:38:33;;;;;;;9.05;7.53;;;;;;;;;;5029634;28;20112;-73
2022/07/31 09:41:11;;;;;;;12.68;7.75;;;;;;;;;;5044543;28;20032;-73
2022/07/31 09:43:37;;;;;;;14.45;8.23;;;;;;;;;;5048068;28;20040;-73
2022/07/31 09:46:03;;;;;;;10.68;8.40;;;;;;;;;;5049761;28;20032;-73
2022/07/31 09:48:28;;;;;;;14.13;9.50;;;;;;;;;;5033128;28;20035;-73
2022/07/31 09:51:14;;;;;;;11.77;9.02;;;;;;;;;;5051736;28;20044;-73
2022/07/31 09:53:40;;;;;;;14.98;9.43;;;;;;;;;;5049670;28;20040;-73
2022/07/31 09:56:07;;;;;;;13.50;9.43;;;;;;;;;;5051407;28;20569;-73
2022/07/31 09:58:32;;;;;;;12.88;9.75;;;;;;;;;;5016942;28;20029;-73
2022/07/31 10:00:57;;;;;;;14.00;9.88;;;;;;;;;;5049808;28;20036;-73
2022/07/31 10:03:24;;;;;;;10.85;9.60;;;;;;;;;;5051158;28;20064;-73
2022/07/31 10:05:49;;;;;;;12.73;10.85;;;;;;;;;;5045508;28;20043;-73
2022/07/31 10:08:16;;;;;;;13.60;10.77;;;;;;;;;;5024025;28;20412;-73
2022/07/31 10:10:45;;;;;;;11.40;9.65;;;;;;;;;;5030809;28;20032;-72
2022/07/31 10:13:14;;;;;;;13.70;10.07;;;;;;;;;;5013837;28;20508;-73
2022/07/31 10:15:39;;;;;;;13.82;11.10;;;;;;;;;;5046685;28;20435;-73
2022/07/31 10:18:07;;;;;;;12.50;10.02;;;;;;;;;;5032304;28;20094;-71
2022/07/31 10:20:35;;;;;;;13.13;10.10;;;;;;;;;;5030332;28;20020;-71
2022/07/31 10:23:10;;;;;;;14.23;10.55;;;;;;;;;;5050725;28;20040;-71
2022/07/31 10:25:38;;;;;;;13.57;10.10;;;;;;;;;;5051379;28;20036;-71
2022/07/31 10:28:05;;;;;;;15.85;10.65;;;;;;;;;;5035126;28;20463;-71
2022/07/31 10:30:30;;;;;;;13.43;10.85;;;;;;;;;;5034828;28;20491;-71
2022/07/31 10:32:57;;;;;;;13.43;11.15;;;;;;;;;;5045896;28;20028;-71
2022/07/31 10:35:22;;;;;;;14.48;11.10;;;;;;;;;;5067400;28;20032;-71
2022/07/31 10:37:59;;;;;;;15.63;11.07;;;;;;;;;;5050711;28;20036;-71
2022/07/31 10:40:43;;;;;;;13.63;11.05;;;;;;;;;;5048542;28;20020;-71
2022/07/31 10:43:09;;;;;;;15.90;11.50;;;;;;;;;;5034314;28;20111;-71
2022/07/31 10:45:44;;;;;;;21.30;13.07;;;;;;;;;;5064874;28;20490;-71
2022/07/31 10:48:10;;;;;;;14.10;11.00;;;;;;;;;;5068021;28;20047;-71
2022/07/31 10:50:35;;;;;;;17.45;13.15;;;;;;;;;;5047106;28;20028;-71
2022/07/31 10:53:11;;;;;;;18.85;12.60;;;;;;;;;;5067144;28;20107;-71
2022/07/31 10:55:36;;;;;;;14.88;12.60;;;;;;;;;;5048283;28;20261;-71
2022/07/31 10:58:12;;;;;;;17.80;13.30;;;;;;;;;;5050037;28;20048;-71
2022/07/31 11:00:38;;;;;;;17.98;12.63;;;;;;;;;;5047774;28;20029;-71
2022/07/31 11:03:19;;;;;;;18.80;13.02;;;;;;;;;;5066071;28;20450;-71
2022/07/31 11:05:55;;;;;;;17.77;12.82;;;;;;;;;;5066007;28;20029;-71
2022/07/31 11:08:20;;;;;;;16.73;13.40;;;;;;;;;;5067043;28;20028;-71
2022/07/31 11:10:55;;;;;;;16.83;14.38;;;;;;;;;;5048449;28;20055;-71
2022/07/31 11:13:22;;;;;;;19.27;14.05;;;;;;;;;;5046212;28;20035;-71
2022/07/31 11:15:47;;;;;;;20.00;16.02;;;;;;;;;;5063279;28;20023;-71
2022/07/31 11:18:21;;;;;;;21.65;16.65;;;;;;;;;;5049617;28;20032;-85
2022/07/31 11:20:59;;;;;;;24.63;18.52;;;;;;;;;;5053090;28;20064;-85
2022/07/31 11:23:28;;;;;;;25.42;19.63;;;;;;;;;;5027805;28;20139;-85
2022/07/31 11:26:00;;;;;;;21.83;19.55;;;;;;;;;;5013765;28;20038;-84
2022/07/31 11:28:28;;;;;;;25.40;20.08;;;;;;;;;;5023794;28;20430;-85
2022/07/31 11:30:57;;;;;;;26.30;21.50;;;;;;;;;;5017593;28;20036;-86
2022/07/31 11:33:40;;;;;;;28.13;21.48;;;;;;;;;;5030256;28;20545;-87
2022/07/31 11:36:05;;;;;;;;;;;;;;;;;;4999549;28;20124;-88
2022/07/31 11:38:31;;;;;;;30.83;22.20;;;;;;;;;;5051242;28;20434;-87
2022/07/31 11:40:56;;;;;;;26.77;23.17;;;;;;;;;;5016243;28;20020;-85
2022/07/31 11:43:22;;;;;;;33.03;23.23;;;;;;;;;;5031975;28;20033;-85
2022/07/31 11:45:50;;;;;;;33.65;26.20;;;;;;;;;;5031574;28;20158;-87
2022/07/31 11:48:16;;;;;;;34.92;26.17;;;;;;;;;;5019348;28;20040;-87
2022/07/31 11:50:41;;;;;;;36.80;25.23;;;;;;;;;;5033406;28;20486;-85
2022/07/31 11:53:07;;;;;;;31.98;26.02;;;;;;;;;;5032151;28;20032;-86
2022/07/31 11:55:45;;;;;;;31.33;26.98;;;;;;;;;;5023886;28;20475;-86
2022/07/31 11:58:10;;;;;;;32.10;28.30;;;;;;;;;;5030680;28;20720;-86
2022/07/31 12:00:36;;;;;;;30.35;25.55;;;;;;;;;;5031827;28;20067;-86
2022/07/31 12:03:01;;;;;;;35.95;28.48;;;;;;;;;;5022081;28;20123;-85
2022/07/31 12:05:27;;;;;;;46.47;29.88;;;;;;;;;;5019985;28;20039;-85
2022/07/31 12:07:52;;;;;;;42.45;30.17;;;;;;;;;;5033682;28;20154;-85
2022/07/31 12:10:17;;;;;;;40.45;31.85;;;;;;;;;;5022216;28;20043;-86
2022/07/31 12:12:43;;;;;;;37.60;30.58;;;;;;;;;;5015921;28;20525;-85
2022/07/31 12:15:17;;;;;;;38.60;29.75;;;;;;;;;;5032288;28;20170;-85
2022/07/31 12:17:42;;;;;;;41.92;32.10;;;;;;;;;;5030794;28;20036;-85
2022/07/31 12:20:08;;;;;;;40.90;31.15;;;;;;;;;;5022226;28;20032;-85
2022/07/31 12:22:33;;;;;;;42.80;32.83;;;;;;;;;;5016258;28;20046;-86
2022/07/31 12:24:59;;;;;;;39.15;31.55;;;;;;;;;;5015793;28;20045;-85
2022/07/31 12:27:25;;;;;;;47.95;34.10;;;;;;;;;;5027068;28;20028;-85
2022/07/31 12:29:50;;;;;;;44.42;34.22;;;;;;;;;;5034420;28;20060;-86
2022/07/31 12:32:23;;;;;;;50.50;36.83;;;;;;;;;;5023069;28;20115;-86
2022/07/31 12:34:48;;;;;;;46.85;37.80;;;;;;;;;;5033731;28;20096;-86
2022/07/31 12:37:14;;;;;;;49.45;37.30;;;;;;;;;;5032697;28;20476;-86
2022/07/31 12:39:46;;;;;;;44.85;38.80;;;;;;;;;;5032216;28;20431;-87
2022/07/31 12:42:39;;;;;;;50.90;39.08;;;;;;;;;;5065068;28;20024;-87
2022/07/31 12:45:05;;;;;;;58.22;40.75;;;;;;;;;;5034613;28;20803;-87
2022/07/31 12:47:31;;;;;;;58.67;40.78;;;;;;;;;;5028922;28;20036;-87
2022/07/31 12:50:00;;;;;;;52.17;40.47;;;;;;;;;;5019637;28;20034;-87
2022/07/31 12:52:30;;;;;;;59.08;42.88;;;;;;;;;;5021050;28;20111;-87
2022/07/31 12:54:56;;;;;;;58.20;42.65;;;;;;;;;;5017953;28;20111;-87
2022/07/31 12:57:21;;;;;;;64.10;46.78;;;;;;;;;;5034714;28;20558;-87
2022/07/31 12:59:49;;;;;;;65.47;47.70;;;;;;;;;;5050812;28;20028;-87
2022/07/31 13:02:16;;;;;;;64.75;46.85;;;;;;;;;;5035652;28;20489;-86
2022/07/31 13:04:41;;;;;;;71.70;50.40;;;;;;;;;;5040048;28;20028;-87
2022/07/31 13:07:07;;;;;;;68.38;47.50;;;;;;;;;;5039418;28;20074;-86
2022/07/31 13:09:32;;;;;;;74.00;49.15;;;;;;;;;;5038629;28;20494;-86
2022/07/31 13:11:58;;;;;;;68.53;48.75;;;;;;;;;;5034029;28;20028;-86
2022/07/31 13:14:23;;;;;;;61.38;46.78;;;;;;;;;;5038816;28;20507;-86
2022/07/31 13:16:50;;;;;;;63.60;45.53;;;;;;;;;;5005339;28;20056;-87
2022/07/31 13:19:15;;;;;;;67.88;48.30;;;;;;;;;;5022616;28;20138;-87
2022/07/31 13:21:41;;;;;;;68.32;47.65;;;;;;;;;;5035952;28;20068;-87
2022/07/31 13:24:08;;;;;;;64.03;49.13;;;;;;;;;;5038520;28;20041;-85
2022/07/31 13:26:37;;;;;;;67.45;48.55;;;;;;;;;;5034171;28;20079;-86
2022/07/31 13:29:03;;;;;;;74.35;50.80;;;;;;;;;;5030843;28;20119;-86
2022/07/31 13:31:28;;;;;;;77.50;52.30;;;;;;;;;;5033351;28;20036;-86
2022/07/31 13:33:54;;;;;;;62.40;49.38;;;;;;;;;;5017501;28;20029;-85
2022/07/31 13:36:19;;;;;;;70.38;51.30;;;;;;;;;;5014840;28;20107;-86
2022/07/31 13:38:45;;;;;;;63.65;50.72;;;;;;;;;;5043716;28;20082;-87
2022/07/31 13:41:19;;;;;;;68.03;51.25;;;;;;;;;;5003386;28;20092;-85
2022/07/31 13:43:48;;;;;;;64.68;51.85;;;;;;;;;;5053596;28;20710;-84
2022/07/31 13:46:15;;;;;;;59.42;50.65;;;;;;;;;;5035049;28;20020;-84
2022/07/31 13:48:41;;;;;;;63.60;50.60;;;;;;;;;;5022464;28;20147;-85
2022/07/31 13:51:06;;;;;;;57.25;48.13;;;;;;;;;;5034904;28;20111;-85
2022/07/31 13:53:34;;;;;;;62.88;49.00;;;;;;;;;;5048386;28;20445;-85
2022/07/31 13:55:59;;;;;;;53.83;47.40;;;;;;;;;;5039398;28;20060;-86
2022/07/31 13:58:28;;;;;;;55.13;45.20;;;;;;;;;;5032364;28;20517;-85
2022/07/31 14:00:54;;;;;;;54.13;46.63;;;;;;;;;;5019108;28;20032;-85
2022/07/31 14:03:19;;;;;;;57.55;49.80;;;;;;;;;;5071754;28;20020;-85
2022/07/31 14:05:45;;;;;;;59.85;51.90;;;;;;;;;;5034220;28;20044;-85
2022/07/31 14:08:13;;;;;;;63.72;52.15;;;;;;;;;;5036762;28;20047;-85
2022/07/31 14:10:38;;;;;;;62.08;50.15;;;;;;;;;;5021456;28;20044;-85
2022/07/31 14:13:04;;;;;;;56.22;49.45;;;;;;;;;;5039319;28;20077;-85
2022/07/31 14:15:29;;;;;;;56.65;47.90;;;;;;;;;;5016134;28;20056;-85
2022/07/31 14:17:55;;;;;;;59.20;47.67;;;;;;;;;;5013867;28;20059;-84
2022/07/31 14:20:23;;;;;;;55.05;46.60;;;;;;;;;;5034904;28;20028;-85
2022/07/31 14:22:48;;;;;;;51.67;46.17;;;;;;;;;;5047560;28;20056;-85
2022/07/31 14:25:14;;;;;;;50.38;43.92;;;;;;;;;;5045867;28;20120;-84
2022/07/31 14:27:39;;;;;;;52.13;42.83;;;;;;;;;;5034051;28;20064;-84
2022/07/31 14:30:06;;;;;;;48.50;40.92;;;;;;;;;;5036029;28;20055;-84
2022/07/31 14:32:31;;;;;;;48.35;39.55;;;;;;;;;;5035312;28;20024;-84
2022/07/31 14:34:57;;;;;;;47.90;39.42;;;;;;;;;;5027085;28;20040;-84